Imperial County Airport
KIPL : now visible

Airfield :











YOU CAN JOIN US ON...

 
LOGIN :

Register | Disclaimer

   EN    FR    IT 

 









Legend :    VFR   Marginal VFR   IFR   Intensive IFR   Very Intensive IFR
Visi :
Ceiling :
>= 8 km
>= 3000ft
5 to 8 km
1000 to 3000 ft
1500m to 5 km
500 to 1000 ft
800 to 1500m
200 to 500 ft
< 800m
< 200 ft
Symbols :   Thunderstorms  Fog  Heavy snow  Heavy precipitations  Wind > 20 kt






- Airport Elevation : -54 ft


KIPL - Imperial County

CURRENT METAR :
  • 080653Z AUTO 00000KT 5SM BR CLR 14/13 A3005 RMK AO2 SLP176 T01440133

EXPIRED METARs :
  • 080553Z AUTO 34003KT 5SM BR CLR 14/13 A3006 RMK AO2 SLP180 60001 T01440133 10167 20144 58001
  • 080453Z AUTO 00000KT 5SM BR CLR 14/13 A3007 RMK AO2 SLP182 T01440133

TAF KIPL
Valid from the 08 at 06:00 until the 09 at 06:00 UTC


080537Z 0806/0906 VRB04KT P6SM FEW080 SCT150
FM081900 26010G18KT P6SM BKN180
FM090400 26010KT P6SM SCT200



MET'MAP, your aeronautical weather chart ! - Copyright ORBIFLY December 2007 - Disclaimer

ORBIFLY MET'MAP TEAM :

Programming & Development : Alexandra Zaïnal
Concept & original design : Baudouin d'Aumeries
Assistance for programming : Marc-Olivier Méhu
Technical & hardware support : Manuel Goepfert

Contact : metmap@orbifly.com




SOURCES & CREDITS :

   NOAA       Earth
Advisory